createdAt,value
2023-03-31T00:02:24.688Z,83.72
2023-03-31T00:04:53.066Z,84.00
2023-03-31T00:07:23.849Z,84.19
2023-03-31T00:10:03.764Z,84.33
2023-03-31T00:12:38.334Z,85.40
2023-03-31T00:15:06.197Z,86.52
2023-03-31T00:17:33.934Z,86.72
2023-03-31T00:20:09.015Z,86.20
2023-03-31T00:22:39.631Z,85.69
2023-03-31T00:25:10.194Z,85.44
2023-03-31T00:27:37.772Z,85.40
2023-03-31T00:30:05.341Z,85.30
2023-03-31T00:32:33.547Z,84.85
2023-03-31T00:35:02.506Z,84.10
2023-03-31T00:37:30.462Z,84.27
2023-03-31T00:39:58.320Z,84.37
2023-03-31T00:42:25.864Z,85.13
2023-03-31T00:44:53.464Z,85.31
2023-03-31T00:47:21.173Z,85.23
2023-03-31T00:49:48.865Z,84.95
2023-03-31T00:52:17.358Z,84.80
2023-03-31T00:54:45.019Z,84.58
2023-03-31T00:57:12.641Z,84.54
2023-03-31T00:59:40.351Z,84.50
2023-03-31T01:02:08.154Z,84.36
2023-03-31T01:04:36.257Z,84.24
2023-03-31T01:07:04.455Z,84.15
2023-03-31T01:09:35.286Z,84.19
2023-03-31T01:12:02.948Z,84.04
2023-03-31T01:14:30.715Z,83.66
2023-03-31T01:16:58.399Z,83.08
2023-03-31T01:19:26.128Z,83.43
2023-03-31T01:21:53.887Z,83.61
2023-03-31T01:24:22.670Z,83.74
2023-03-31T01:26:50.205Z,84.02
2023-03-31T01:29:17.775Z,84.10
2023-03-31T01:31:45.456Z,84.34
2023-03-31T01:34:13.141Z,84.32
2023-03-31T01:36:41.276Z,84.15
2023-03-31T01:39:08.863Z,83.82
2023-03-31T01:41:36.487Z,83.44
2023-03-31T01:44:04.025Z,83.15
2023-03-31T01:46:31.661Z,82.84
2023-03-31T01:48:59.341Z,82.52
2023-03-31T01:51:27.052Z,82.30
2023-03-31T01:53:54.703Z,82.06
2023-03-31T01:56:22.464Z,81.86
2023-03-31T01:58:51.087Z,81.73
2023-03-31T02:01:19.931Z,81.76
2023-03-31T02:03:47.525Z,81.66
2023-03-31T02:06:15.431Z,81.60
2023-03-31T02:08:43.155Z,81.65
2023-03-31T02:11:10.822Z,81.70
2023-03-31T02:13:38.591Z,81.78
2023-03-31T02:16:06.254Z,81.89
2023-03-31T02:18:38.507Z,81.90
2023-03-31T02:21:06.045Z,81.89
2023-03-31T02:23:33.918Z,81.90
2023-03-31T02:26:01.486Z,81.89
2023-03-31T02:28:28.997Z,81.90
2023-03-31T02:30:56.600Z,81.91
2023-03-31T02:33:24.122Z,81.97
2023-03-31T02:35:51.915Z,81.93
2023-03-31T02:38:19.621Z,81.90
2023-03-31T02:40:47.324Z,81.97
2023-03-31T02:43:15.382Z,82.00
2023-03-31T02:45:43.037Z,82.09
2023-03-31T02:48:10.752Z,82.16
2023-03-31T02:50:38.600Z,82.18
2023-03-31T02:53:06.264Z,82.22
2023-03-31T02:55:37.736Z,82.23
2023-03-31T02:58:05.618Z,82.19
2023-03-31T03:00:33.526Z,82.11
2023-03-31T03:03:01.613Z,82.09
2023-03-31T03:05:29.595Z,82.19
2023-03-31T03:07:57.481Z,82.15
2023-03-31T03:10:25.565Z,82.19
2023-03-31T03:12:53.268Z,82.13
2023-03-31T03:15:21.058Z,82.11
2023-03-31T03:17:48.784Z,82.00
2023-03-31T03:20:16.461Z,81.89
2023-03-31T03:22:44.058Z,81.79
2023-03-31T03:25:11.668Z,81.66
2023-03-31T03:27:39.268Z,81.52
2023-03-31T03:30:08.289Z,81.64
2023-03-31T03:32:35.827Z,81.86
2023-03-31T03:35:04.108Z,81.98
2023-03-31T03:37:31.713Z,82.06
2023-03-31T03:39:59.316Z,82.18
2023-03-31T03:42:28.735Z,82.18
2023-03-31T03:44:56.590Z,82.24
2023-03-31T03:47:24.214Z,82.30
2023-03-31T03:49:52.306Z,82.32
2023-03-31T03:52:20.562Z,82.33
2023-03-31T03:54:48.233Z,82.30
2023-03-31T03:57:16.888Z,82.26
2023-03-31T03:59:46.530Z,82.14
2023-03-31T04:02:14.471Z,82.04
2023-03-31T04:04:42.211Z,81.98
2023-03-31T04:07:09.843Z,81.87
2023-03-31T04:09:37.409Z,81.78
2023-03-31T04:12:05.431Z,81.69
2023-03-31T04:14:32.976Z,81.56
2023-03-31T04:17:00.484Z,81.43
2023-03-31T04:19:28.362Z,81.33
2023-03-31T04:22:02.908Z,81.30
2023-03-31T04:24:32.976Z,81.28
2023-03-31T04:27:03.304Z,81.16
2023-03-31T04:29:34.006Z,81.04
2023-03-31T04:32:01.940Z,81.01
2023-03-31T04:34:35.898Z,81.00
2023-03-31T04:37:04.333Z,80.95
2023-03-31T04:39:31.997Z,80.80
2023-03-31T04:41:59.677Z,80.80
2023-03-31T04:44:27.733Z,80.80
2023-03-31T04:46:55.458Z,80.80
2023-03-31T04:49:23.062Z,80.77
2023-03-31T04:51:51.035Z,80.74
2023-03-31T04:54:18.660Z,80.85
2023-03-31T04:56:46.466Z,80.90
2023-03-31T04:59:14.196Z,80.90
2023-03-31T05:01:45.182Z,80.90
2023-03-31T05:04:13.767Z,80.91
2023-03-31T05:06:41.584Z,80.98
2023-03-31T05:09:10.163Z,81.00
2023-03-31T05:11:38.462Z,80.96
2023-03-31T05:14:06.405Z,80.90
2023-03-31T05:16:34.276Z,80.89
2023-03-31T05:19:02.233Z,80.85
2023-03-31T05:21:30.826Z,80.90
2023-03-31T05:23:58.443Z,80.80
2023-03-31T05:26:26.625Z,81.02
2023-03-31T05:28:56.218Z,80.84
2023-03-31T05:31:23.823Z,80.77
2023-03-31T05:33:52.048Z,80.91
2023-03-31T05:36:23.831Z,81.05
2023-03-31T05:38:52.545Z,81.02
2023-03-31T05:41:23.093Z,80.97
2023-03-31T05:43:50.730Z,80.90
2023-03-31T05:46:21.634Z,81.32
2023-03-31T05:48:49.946Z,81.07
2023-03-31T05:51:17.763Z,80.73
2023-03-31T05:53:46.050Z,80.73
2023-03-31T05:56:13.821Z,80.62
2023-03-31T05:58:41.358Z,80.50
2023-03-31T06:01:09.622Z,80.73
2023-03-31T06:03:37.685Z,80.78
2023-03-31T06:06:06.390Z,80.53
2023-03-31T06:08:34.028Z,80.46
2023-03-31T06:11:02.383Z,80.38
2023-03-31T06:13:29.975Z,80.14
2023-03-31T06:15:58.361Z,80.66
2023-03-31T06:18:26.081Z,79.79
2023-03-31T06:20:53.704Z,79.51
2023-03-31T06:23:21.639Z,79.55
2023-03-31T06:25:51.984Z,79.62
2023-03-31T06:28:20.017Z,79.72
2023-03-31T06:30:47.920Z,79.70
2023-03-31T06:33:16.492Z,79.67
2023-03-31T06:35:44.328Z,79.64
2023-03-31T06:38:12.237Z,79.76
2023-03-31T06:40:40.375Z,79.68
2023-03-31T06:43:08.030Z,79.15
2023-03-31T06:45:35.905Z,79.25
2023-03-31T06:48:03.431Z,79.57
2023-03-31T06:50:31.344Z,78.99
2023-03-31T06:53:00.167Z,79.05
2023-03-31T06:55:27.965Z,79.43
2023-03-31T06:57:55.849Z,79.78
2023-03-31T07:00:26.129Z,79.47
2023-03-31T07:02:53.843Z,78.89
2023-03-31T07:05:26.932Z,78.24
2023-03-31T07:07:54.472Z,77.94
2023-03-31T07:10:23.109Z,77.65
2023-03-31T07:12:50.913Z,76.88
2023-03-31T07:15:18.481Z,77.02
2023-03-31T07:17:46.187Z,76.76
2023-03-31T07:20:15.166Z,75.48
2023-03-31T07:22:42.718Z,75.13
2023-03-31T07:25:10.816Z,75.09
2023-03-31T07:27:39.080Z,74.96
2023-03-31T07:30:06.681Z,75.26
2023-03-31T07:32:36.029Z,74.55
2023-03-31T07:35:12.390Z,74.69
2023-03-31T07:37:41.305Z,73.44
2023-03-31T07:40:09.609Z,73.14
2023-03-31T07:42:37.671Z,73.56
2023-03-31T07:45:08.108Z,72.08
2023-03-31T07:47:36.428Z,72.49
2023-03-31T07:50:04.743Z,72.62
2023-03-31T07:52:33.262Z,72.08
2023-03-31T07:55:01.088Z,72.10
2023-03-31T07:57:28.974Z,72.31
2023-03-31T07:59:56.725Z,71.50
2023-03-31T08:02:24.308Z,71.16
2023-03-31T08:04:55.079Z,71.15
2023-03-31T08:07:22.620Z,70.97
2023-03-31T08:09:50.265Z,69.34
2023-03-31T08:12:17.971Z,69.21
2023-03-31T08:14:45.469Z,69.48
2023-03-31T08:17:13.022Z,70.26
2023-03-31T08:19:41.905Z,70.04
2023-03-31T08:22:09.585Z,69.72
2023-03-31T08:24:37.652Z,69.70
2023-03-31T08:29:39.796Z,68.97
2023-03-31T08:32:07.630Z,69.34
2023-03-31T08:34:38.640Z,69.00
2023-03-31T08:37:09.445Z,69.16
2023-03-31T08:39:37.426Z,69.48
2023-03-31T08:42:05.381Z,70.04
2023-03-31T08:44:36.360Z,69.30
2023-03-31T08:47:05.426Z,69.78
2023-03-31T08:49:33.042Z,69.55
2023-03-31T08:52:00.596Z,69.54
2023-03-31T08:54:28.342Z,69.03
2023-03-31T08:56:56.223Z,69.53
2023-03-31T08:59:24.013Z,69.76
2023-03-31T09:01:56.593Z,68.99
2023-03-31T09:04:25.128Z,68.90
2023-03-31T09:06:53.034Z,68.04
2023-03-31T09:09:21.221Z,68.35
2023-03-31T09:11:48.824Z,67.56
2023-03-31T09:14:16.630Z,67.41
2023-03-31T09:16:46.929Z,66.99
2023-03-31T09:19:15.220Z,67.15
2023-03-31T09:21:43.189Z,67.47
2023-03-31T09:24:11.031Z,65.83
2023-03-31T09:26:39.407Z,65.34
2023-03-31T09:29:07.456Z,64.76
2023-03-31T09:31:36.689Z,64.47
2023-03-31T09:34:04.363Z,64.38
2023-03-31T09:36:33.272Z,63.41
2023-03-31T09:39:02.531Z,62.92
2023-03-31T09:41:32.410Z,62.42
2023-03-31T09:44:01.547Z,63.82
2023-03-31T09:46:29.439Z,62.16
2023-03-31T09:48:58.161Z,61.81
2023-03-31T09:51:25.798Z,63.46
2023-03-31T09:53:54.805Z,63.30
2023-03-31T09:56:26.055Z,64.32
2023-03-31T09:58:53.620Z,62.35
2023-03-31T10:01:23.637Z,60.37
2023-03-31T10:03:51.310Z,60.38
2023-03-31T10:06:18.927Z,61.16
2023-03-31T10:08:46.515Z,62.36
2023-03-31T10:11:14.203Z,62.11
2023-03-31T10:13:42.216Z,62.33
2023-03-31T10:16:09.800Z,60.89
2023-03-31T10:18:37.985Z,61.97
2023-03-31T10:21:05.894Z,61.84
2023-03-31T10:23:33.890Z,61.12
2023-03-31T10:26:01.718Z,61.15
2023-03-31T10:28:29.396Z,60.84
2023-03-31T10:30:58.110Z,60.76
2023-03-31T10:33:26.684Z,60.17
2023-03-31T10:35:54.445Z,60.17
2023-03-31T10:38:22.053Z,59.92
2023-03-31T10:40:49.682Z,58.08
2023-03-31T10:43:17.473Z,57.84
2023-03-31T10:45:45.419Z,58.10
2023-03-31T10:48:26.199Z,57.44
2023-03-31T10:50:56.393Z,56.96
2023-03-31T10:53:25.611Z,57.91
2023-03-31T10:55:56.452Z,57.88
2023-03-31T10:58:25.098Z,58.38
2023-03-31T11:00:53.081Z,57.25
2023-03-31T11:03:21.385Z,57.77
2023-03-31T11:05:48.985Z,56.98
2023-03-31T11:08:18.672Z,55.66
2023-03-31T11:10:47.588Z,55.15
2023-03-31T11:13:15.348Z,57.31
2023-03-31T11:15:42.950Z,57.39
2023-03-31T11:18:12.048Z,57.08
2023-03-31T11:20:40.180Z,56.39
2023-03-31T11:23:07.788Z,57.78
2023-03-31T11:25:36.054Z,58.33
2023-03-31T11:28:03.639Z,57.68
2023-03-31T11:30:32.364Z,58.21
2023-03-31T11:33:00.876Z,57.90
2023-03-31T11:35:28.723Z,57.57
2023-03-31T11:37:56.913Z,57.63
2023-03-31T11:40:27.916Z,57.12
2023-03-31T11:42:58.806Z,56.81
2023-03-31T11:45:50.983Z,57.69
2023-03-31T11:48:26.624Z,58.15
2023-03-31T11:50:55.263Z,58.43
2023-03-31T11:53:28.416Z,57.88
2023-03-31T11:55:56.504Z,57.13
2023-03-31T11:58:30.817Z,56.63
2023-03-31T12:00:59.696Z,56.58
2023-03-31T12:03:36.327Z,55.70
2023-03-31T12:06:08.715Z,55.80
2023-03-31T12:08:37.275Z,55.50
2023-03-31T12:11:08.678Z,55.76
2023-03-31T12:13:36.929Z,56.73
2023-03-31T12:16:04.975Z,56.93
2023-03-31T12:18:35.483Z,56.54
2023-03-31T12:21:04.911Z,56.39
2023-03-31T12:23:32.753Z,55.79
2023-03-31T12:26:01.641Z,56.58
2023-03-31T12:28:32.898Z,57.06
2023-03-31T12:31:00.604Z,56.92
2023-03-31T12:33:28.364Z,56.64
2023-03-31T12:38:47.418Z,55.80
2023-03-31T12:41:34.495Z,55.32
2023-03-31T12:44:03.501Z,55.61
2023-03-31T12:46:36.045Z,56.03
2023-03-31T12:49:03.761Z,56.56
2023-03-31T12:51:32.368Z,56.85
2023-03-31T12:54:01.247Z,55.87
2023-03-31T12:56:33.471Z,55.21
2023-03-31T12:59:02.985Z,54.20
2023-03-31T13:01:48.103Z,54.16
2023-03-31T13:04:17.544Z,54.41
2023-03-31T13:06:47.431Z,54.96
2023-03-31T13:09:36.700Z,54.95
2023-03-31T13:12:06.227Z,55.84
2023-03-31T13:14:38.474Z,55.80
2023-03-31T13:17:07.974Z,54.90
2023-03-31T13:19:35.829Z,55.29
2023-03-31T13:22:06.351Z,53.79
2023-03-31T13:24:34.037Z,53.54
2023-03-31T13:27:03.558Z,53.33
2023-03-31T13:29:34.818Z,53.58
2023-03-31T13:32:03.125Z,54.06
2023-03-31T13:34:35.984Z,53.47
2023-03-31T13:37:06.797Z,53.43
2023-03-31T13:39:36.116Z,53.04
2023-03-31T13:42:08.478Z,53.79
2023-03-31T13:44:41.293Z,54.72
2023-03-31T13:47:09.717Z,54.41
2023-03-31T13:49:41.855Z,55.08
2023-03-31T13:52:09.981Z,55.06
2023-03-31T13:54:38.109Z,55.07
2023-03-31T13:57:05.940Z,55.09
2023-03-31T13:59:35.425Z,55.71
2023-03-31T14:02:11.247Z,55.65
2023-03-31T14:04:39.000Z,55.88
2023-03-31T14:07:12.552Z,55.66
2023-03-31T14:09:53.218Z,56.30
2023-03-31T14:12:22.737Z,56.06
2023-03-31T14:14:52.352Z,55.84
2023-03-31T14:17:19.928Z,55.20
2023-03-31T14:19:49.845Z,55.89
2023-03-31T14:22:21.889Z,55.53
2023-03-31T14:24:49.617Z,55.53
2023-03-31T14:27:18.841Z,56.18
2023-03-31T14:29:49.848Z,56.35
2023-03-31T14:32:20.730Z,56.12
2023-03-31T14:34:54.531Z,56.56
2023-03-31T14:37:25.416Z,56.83
2023-03-31T14:39:55.054Z,56.95
2023-03-31T14:42:23.153Z,55.41
2023-03-31T14:44:51.085Z,54.21
2023-03-31T14:47:18.752Z,54.16
2023-03-31T14:49:50.189Z,54.13
2023-03-31T14:52:18.741Z,54.43
2023-03-31T14:54:49.129Z,55.02
2023-03-31T14:57:19.834Z,54.80
2023-03-31T14:59:48.505Z,54.95
2023-03-31T15:02:21.073Z,55.26
2023-03-31T15:04:51.600Z,55.03
2023-03-31T15:07:25.194Z,55.05
2023-03-31T15:09:53.626Z,55.30
2023-03-31T15:12:23.705Z,55.39
2023-03-31T15:14:51.402Z,55.92
2023-03-31T15:17:19.408Z,56.00
2023-03-31T15:19:47.284Z,56.15
2023-03-31T15:22:16.259Z,56.25
2023-03-31T15:24:44.128Z,55.97
2023-03-31T15:27:14.927Z,56.19
2023-03-31T15:33:18.929Z,56.56
2023-03-31T15:35:48.689Z,56.58
2023-03-31T15:38:18.291Z,56.93
2023-03-31T15:40:45.930Z,56.70
2023-03-31T15:43:20.310Z,56.67
2023-03-31T15:45:53.099Z,56.80
2023-03-31T15:48:20.871Z,56.84
2023-03-31T15:50:48.999Z,56.20
2023-03-31T15:53:17.525Z,56.28
2023-03-31T15:55:45.739Z,56.79
2023-03-31T15:58:13.422Z,57.11
2023-03-31T16:00:41.091Z,57.16
2023-03-31T16:03:09.932Z,57.28
2023-03-31T16:05:51.304Z,56.77
2023-03-31T16:08:21.793Z,56.57
2023-03-31T16:10:51.686Z,56.89
2023-03-31T16:13:23.121Z,56.74
2023-03-31T16:15:50.809Z,56.42
2023-03-31T16:18:18.358Z,56.63
2023-03-31T16:20:46.289Z,56.92
2023-03-31T16:23:13.900Z,56.65
2023-03-31T16:25:42.260Z,55.89
2023-03-31T16:28:09.826Z,55.95
2023-03-31T16:30:37.714Z,56.04
2023-03-31T16:33:05.590Z,55.96
2023-03-31T16:35:33.339Z,55.86
2023-03-31T16:38:07.376Z,55.66
2023-03-31T16:40:34.949Z,55.81
2023-03-31T16:43:02.513Z,56.03
2023-03-31T16:45:32.067Z,56.15
2023-03-31T16:48:08.962Z,56.16
2023-03-31T16:50:43.121Z,56.08
2023-03-31T16:53:11.849Z,56.12
2023-03-31T16:55:40.677Z,56.53
2023-03-31T16:58:11.052Z,56.74
2023-03-31T17:00:40.736Z,56.99
2023-03-31T17:03:08.993Z,57.19
2023-03-31T17:05:37.127Z,57.39
2023-03-31T17:08:04.907Z,57.45
2023-03-31T17:10:32.515Z,57.21
2023-03-31T17:13:01.115Z,57.28
2023-03-31T17:15:31.811Z,57.24
2023-03-31T17:17:59.856Z,57.46
2023-03-31T17:20:27.681Z,57.72
2023-03-31T17:22:55.308Z,57.55
2023-03-31T17:25:23.057Z,57.64
2023-03-31T17:27:55.858Z,58.25
2023-03-31T17:30:23.560Z,58.63
2023-03-31T17:32:52.252Z,59.33
2023-03-31T17:35:23.639Z,59.62
2023-03-31T17:37:53.723Z,59.63
2023-03-31T17:40:21.785Z,60.16
2023-03-31T17:42:49.566Z,60.39
2023-03-31T17:45:17.360Z,60.45
2023-03-31T17:47:46.333Z,60.66
2023-03-31T17:50:14.240Z,60.69
2023-03-31T17:52:42.225Z,60.66
2023-03-31T17:55:09.952Z,60.88
2023-03-31T17:57:39.184Z,61.15
2023-03-31T18:00:09.004Z,61.55
2023-03-31T18:02:37.350Z,62.15
2023-03-31T18:05:06.372Z,62.38
2023-03-31T18:07:35.489Z,62.46
2023-03-31T18:10:05.500Z,62.65
2023-03-31T18:12:34.820Z,62.84
2023-03-31T18:15:05.798Z,63.11
2023-03-31T18:17:34.060Z,63.58
2023-03-31T18:20:01.658Z,63.88
2023-03-31T18:22:29.338Z,64.12
2023-03-31T18:24:57.421Z,64.52
2023-03-31T18:27:25.341Z,64.74
2023-03-31T18:29:53.630Z,65.26
2023-03-31T18:32:21.366Z,65.56
2023-03-31T18:34:49.341Z,65.75
2023-03-31T18:37:17.185Z,65.83
2023-03-31T18:39:45.007Z,66.06
2023-03-31T18:42:12.634Z,66.14
2023-03-31T18:45:00.453Z,66.03
2023-03-31T18:47:44.110Z,66.15
2023-03-31T18:50:39.995Z,66.07
2023-03-31T18:53:15.374Z,66.27
2023-03-31T18:55:45.954Z,66.22
2023-03-31T18:58:15.172Z,66.66
2023-03-31T19:00:51.999Z,66.88
2023-03-31T19:03:19.901Z,66.94
2023-03-31T19:05:48.318Z,67.27
2023-03-31T19:08:16.444Z,68.04
2023-03-31T19:10:44.024Z,69.35
2023-03-31T19:13:15.721Z,69.49
2023-03-31T19:15:43.970Z,69.66
2023-03-31T19:18:32.800Z,70.79
2023-03-31T19:21:02.833Z,71.45
2023-03-31T19:23:34.803Z,70.86
2023-03-31T19:26:03.163Z,71.14
2023-03-31T19:28:31.321Z,71.55
2023-03-31T19:31:00.224Z,72.67
2023-03-31T19:33:28.461Z,72.84
2023-03-31T19:35:56.772Z,73.77
2023-03-31T19:38:27.278Z,74.69
2023-03-31T19:40:54.839Z,74.95
2023-03-31T19:43:23.184Z,74.63
2023-03-31T19:45:50.907Z,74.71
2023-03-31T19:48:19.431Z,75.22
2023-03-31T19:50:47.655Z,75.33
2023-03-31T19:53:15.397Z,76.45
2023-03-31T19:55:43.373Z,77.01
2023-03-31T19:58:11.132Z,77.24
2023-03-31T20:00:38.787Z,76.87
2023-03-31T20:03:11.817Z,76.53
2023-03-31T20:05:40.104Z,76.43
2023-03-31T20:08:08.172Z,76.44
2023-03-31T20:10:35.728Z,76.67
2023-03-31T20:13:03.575Z,76.56
2023-03-31T20:15:31.577Z,76.63
2023-03-31T20:17:59.618Z,76.63
2023-03-31T20:20:27.588Z,76.52
2023-03-31T20:22:55.446Z,76.87
2023-03-31T20:25:23.211Z,76.95
2023-03-31T20:27:50.976Z,76.83
2023-03-31T20:30:18.678Z,76.80
2023-03-31T20:32:46.256Z,76.83
2023-03-31T20:35:13.829Z,77.17
2023-03-31T20:37:41.792Z,77.32
2023-03-31T20:40:09.440Z,77.73
2023-03-31T20:42:37.585Z,78.48
2023-03-31T20:45:05.081Z,78.69
2023-03-31T20:47:35.386Z,79.22
2023-03-31T20:50:03.232Z,79.07
2023-03-31T20:52:30.880Z,79.24
2023-03-31T20:54:58.681Z,79.64
2023-03-31T20:57:26.585Z,80.11
2023-03-31T20:59:54.877Z,80.63
2023-03-31T21:02:22.375Z,81.04
2023-03-31T21:04:51.251Z,81.78
2023-03-31T21:07:18.979Z,82.17
2023-03-31T21:09:46.832Z,82.24
2023-03-31T21:12:14.465Z,81.77
2023-03-31T21:14:42.026Z,81.48
2023-03-31T21:17:09.636Z,81.40
2023-03-31T21:19:37.394Z,82.20
2023-03-31T21:22:04.881Z,82.20
2023-03-31T21:24:32.433Z,82.13
2023-03-31T21:29:41.463Z,82.21
2023-03-31T21:32:09.228Z,82.28
2023-03-31T21:34:36.843Z,81.99
2023-03-31T21:37:04.997Z,81.58
2023-03-31T21:39:32.629Z,81.25
2023-03-31T21:42:00.315Z,81.24
2023-03-31T21:44:27.886Z,81.38
2023-03-31T21:46:55.494Z,81.33
2023-03-31T21:49:23.664Z,81.24
2023-03-31T21:51:51.185Z,81.22
2023-03-31T21:54:18.880Z,80.96
2023-03-31T21:56:46.502Z,80.59
2023-03-31T21:59:14.057Z,80.09
2023-03-31T22:01:42.379Z,79.80
2023-03-31T22:04:10.141Z,79.50
2023-03-31T22:06:39.276Z,79.21
2023-03-31T22:09:06.986Z,79.13
2023-03-31T22:11:34.585Z,78.98
2023-03-31T22:14:02.662Z,78.83
2023-03-31T22:16:30.409Z,78.80
2023-03-31T22:19:00.228Z,78.74
2023-03-31T22:21:27.886Z,78.30
2023-03-31T22:23:56.567Z,77.76
2023-03-31T22:26:24.081Z,77.12
2023-03-31T22:28:51.699Z,76.76
2023-03-31T22:31:19.407Z,76.32
2023-03-31T22:33:47.207Z,76.39
2023-03-31T22:36:14.771Z,76.36
2023-03-31T22:38:42.340Z,76.43
2023-03-31T22:41:09.978Z,76.48
2023-03-31T22:43:37.736Z,76.60
2023-03-31T22:46:05.737Z,76.60
2023-03-31T22:48:35.643Z,76.69
2023-03-31T22:51:04.811Z,76.75
2023-03-31T22:53:32.325Z,76.82
2023-03-31T22:56:00.581Z,76.86
2023-03-31T22:58:28.219Z,76.98
2023-03-31T23:00:56.181Z,77.00
2023-03-31T23:03:23.989Z,77.13
2023-03-31T23:05:51.465Z,77.29
2023-03-31T23:08:19.718Z,77.61
2023-03-31T23:10:47.336Z,77.80
2023-03-31T23:13:15.882Z,77.97
2023-03-31T23:15:43.522Z,78.07
2023-03-31T23:18:11.108Z,78.07
2023-03-31T23:20:38.758Z,78.06
2023-03-31T23:23:06.339Z,77.91
2023-03-31T23:25:34.039Z,77.77
2023-03-31T23:28:02.106Z,77.51
2023-03-31T23:30:29.652Z,77.23
2023-03-31T23:32:57.729Z,77.09
2023-03-31T23:35:25.741Z,76.81
2023-03-31T23:37:53.356Z,76.53
2023-03-31T23:40:21.246Z,76.36
2023-03-31T23:42:49.072Z,76.08
2023-03-31T23:45:17.077Z,75.73
2023-03-31T23:47:44.712Z,75.64
2023-03-31T23:50:12.392Z,75.40
2023-03-31T23:52:39.924Z,75.36
2023-03-31T23:55:07.905Z,75.42
2023-03-31T23:57:35.597Z,75.38
